Terminal Aerodrome Forecast
Issued by NWS

Home | Current Version | Previous Version | Text Only | Print | Product List | Glossary On
Versions: 1 2 3 4 5 6 7 8 9 10 11 12 13 14 15 16 17 18
000
FTUS43 KGRR 270540
TAFBTL
TAF
KBTL 270540Z 2706/2806 VRB04KT P6SM BKN200
     FM271300 30008KT P6SM BKN050
     FM280100 01005KT P6SM -RA OVC050
     FM280200 36005KT 4SM -RA OVC025
     FM280300 35004KT 4SM -SHRA OVC015=

USA.gov is the U.S. government's official web portal to all federal, state and local government web resources and services.